createdAt,value
2023-05-19T05:09:38.972Z,69.70
2023-05-19T05:12:41.012Z,69.40
2023-05-19T05:15:42.918Z,69.40
2023-05-19T05:18:46.825Z,69.50
2023-05-19T05:21:48.787Z,69.60
2023-05-19T05:24:50.915Z,69.70
2023-05-19T05:27:52.606Z,69.80
2023-05-19T05:30:56.290Z,69.90
2023-05-19T05:33:58.140Z,69.90
2023-05-19T05:36:59.823Z,69.90
2023-05-19T05:40:01.726Z,69.90
2023-05-19T05:43:03.462Z,70.00
2023-05-19T05:46:05.355Z,70.10
2023-05-19T05:49:07.529Z,70.00
2023-05-19T05:52:10.303Z,69.80
2023-05-19T05:55:12.760Z,69.70
2023-05-19T05:58:15.623Z,69.50
2023-05-19T06:01:17.815Z,69.30
2023-05-19T06:04:20.996Z,69.10
2023-05-19T06:07:22.808Z,69.00
2023-05-19T06:10:24.899Z,68.80
2023-05-19T06:13:26.722Z,68.70
2023-05-19T06:16:28.501Z,68.60
2023-05-19T06:19:30.904Z,68.50
2023-05-19T06:22:32.700Z,68.30
2023-05-19T06:25:34.587Z,68.10
2023-05-19T06:28:36.710Z,67.90
2023-05-19T06:31:38.438Z,67.80
2023-05-19T06:34:40.549Z,67.70
2023-05-19T06:37:42.380Z,67.60
2023-05-19T06:40:44.227Z,67.50
2023-05-19T06:43:45.962Z,67.60
2023-05-19T06:46:47.707Z,67.80
2023-05-19T06:49:51.747Z,67.70
2023-05-19T06:52:53.596Z,67.50
2023-05-19T06:55:59.976Z,67.30
2023-05-19T06:59:03.117Z,67.30
2023-05-19T07:02:05.016Z,67.50
2023-05-19T07:05:08.133Z,67.40
2023-05-19T07:08:09.820Z,67.40
2023-05-19T07:11:12.467Z,67.20
2023-05-19T07:14:14.212Z,67.20
2023-05-19T07:17:15.989Z,67.00
2023-05-19T07:20:18.016Z,66.70
2023-05-19T07:23:19.806Z,66.70
2023-05-19T07:26:22.580Z,66.60
2023-05-19T07:29:24.488Z,66.50
2023-05-19T07:32:26.418Z,67.00
2023-05-19T07:35:28.335Z,67.50
2023-05-19T07:38:31.435Z,67.50
2023-05-19T07:41:34.254Z,67.50
2023-05-19T07:44:36.801Z,67.30
2023-05-19T07:47:38.576Z,67.20
2023-05-19T07:50:40.809Z,67.00
2023-05-19T07:53:43.866Z,66.60
2023-05-19T07:56:45.648Z,66.10
2023-05-19T07:59:47.509Z,65.80
2023-05-19T08:02:49.257Z,65.50
2023-05-19T08:05:51.023Z,65.10
2023-05-19T08:08:54.200Z,64.70
2023-05-19T08:11:55.905Z,64.50
2023-05-19T08:14:58.942Z,64.60
2023-05-19T08:18:03.372Z,64.60
2023-05-19T08:21:05.454Z,64.50
2023-05-19T08:24:07.332Z,64.50
2023-05-19T08:27:09.176Z,64.50
2023-05-19T08:30:11.816Z,64.30
2023-05-19T08:33:13.569Z,64.20
2023-05-19T08:36:15.335Z,64.10
2023-05-19T08:39:19.568Z,63.90
2023-05-19T08:42:21.309Z,63.90
2023-05-19T08:45:23.019Z,63.60
2023-05-19T08:48:24.707Z,63.60
2023-05-19T08:51:41.515Z,63.50
2023-05-19T08:54:50.934Z,63.70
2023-05-19T08:57:52.954Z,63.70
2023-05-19T09:00:55.511Z,63.90
2023-05-19T09:03:57.471Z,64.10
2023-05-19T09:07:02.670Z,64.20
2023-05-19T09:10:06.005Z,64.20
2023-05-19T09:13:07.725Z,64.20
2023-05-19T09:16:09.567Z,64.30
2023-05-19T09:19:15.375Z,64.40
2023-05-19T09:22:20.580Z,64.40
2023-05-19T09:25:22.987Z,64.40
2023-05-19T09:28:29.563Z,64.10
2023-05-19T09:31:33.061Z,63.70
2023-05-19T09:34:34.940Z,63.60
2023-05-19T09:37:42.200Z,63.20
2023-05-19T09:40:44.422Z,62.90
2023-05-19T09:43:48.808Z,62.70
2023-05-19T09:46:51.216Z,63.00
2023-05-19T09:49:53.550Z,63.20
2023-05-19T09:52:55.223Z,63.30
2023-05-19T09:55:57.909Z,63.00
2023-05-19T09:58:59.693Z,62.80
2023-05-19T10:02:01.643Z,62.90
2023-05-19T10:05:04.667Z,63.00
2023-05-19T10:08:07.283Z,63.00
2023-05-19T10:11:09.025Z,63.20
2023-05-19T10:14:10.747Z,63.30
2023-05-19T10:17:12.481Z,63.30
2023-05-19T10:20:15.855Z,63.10
2023-05-19T10:23:17.721Z,63.00
2023-05-19T10:26:19.408Z,63.00
2023-05-19T10:29:23.361Z,63.10
2023-05-19T10:32:26.808Z,63.00
2023-05-19T10:35:52.040Z,62.80
2023-05-19T10:38:58.829Z,62.60
2023-05-19T10:42:05.202Z,62.80
2023-05-19T10:45:21.312Z,62.70
2023-05-19T10:48:23.260Z,62.60
2023-05-19T10:51:32.103Z,62.30
2023-05-19T10:54:46.283Z,62.20
2023-05-19T10:57:54.467Z,62.10
2023-05-19T11:01:01.542Z,61.60
2023-05-19T11:04:09.077Z,61.20
2023-05-19T11:07:10.877Z,61.10
2023-05-19T11:10:12.989Z,61.10
2023-05-19T11:13:22.558Z,60.90
2023-05-19T11:16:29.336Z,60.70
2023-05-19T11:19:33.177Z,60.90
2023-05-19T11:22:36.294Z,60.90
2023-05-19T11:25:41.429Z,60.70
2023-05-19T11:28:43.303Z,60.40
2023-05-19T11:31:45.094Z,60.20
2023-05-19T11:34:48.249Z,60.00
2023-05-19T11:37:52.322Z,60.30
2023-05-19T11:40:54.486Z,60.20
2023-05-19T11:43:56.298Z,59.70
2023-05-19T11:46:59.279Z,58.90
2023-05-19T11:50:01.344Z,58.10
2023-05-19T11:53:03.512Z,57.20
2023-05-19T11:56:05.648Z,57.20
2023-05-19T11:59:07.978Z,57.20
2023-05-19T12:02:22.953Z,56.40
2023-05-19T12:05:25.913Z,55.50
2023-05-19T12:08:27.736Z,55.60
2023-05-19T12:11:29.475Z,55.60
2023-05-19T12:14:31.394Z,55.60
2023-05-19T12:17:33.370Z,55.50
2023-05-19T12:20:38.385Z,55.30
2023-05-19T12:23:41.528Z,55.10
2023-05-19T12:26:43.285Z,54.80
2023-05-19T12:29:54.918Z,54.30
2023-05-19T12:33:00.006Z,53.70
2023-05-19T12:36:01.802Z,53.70
2023-05-19T12:39:04.993Z,53.60
2023-05-19T12:42:10.585Z,53.40
2023-05-19T12:45:12.460Z,53.20
2023-05-19T12:48:17.073Z,52.50
2023-05-19T12:51:19.586Z,52.30
2023-05-19T12:54:22.073Z,52.30
2023-05-19T12:57:24.747Z,52.30
2023-05-19T13:00:32.605Z,52.50
2023-05-19T13:03:40.011Z,52.50
2023-05-19T13:06:43.697Z,52.30
2023-05-19T13:09:45.469Z,52.00
2023-05-19T13:12:47.328Z,51.00
2023-05-19T13:15:49.394Z,50.50
2023-05-19T13:18:51.587Z,50.00
2023-05-19T13:21:53.423Z,49.60
2023-05-19T13:24:58.720Z,49.40
2023-05-19T13:28:01.515Z,49.20
2023-05-19T13:31:03.637Z,49.10
2023-05-19T13:34:05.432Z,49.30
2023-05-19T13:37:10.074Z,48.90
2023-05-19T13:40:12.989Z,48.90
2023-05-19T13:43:14.802Z,48.90
2023-05-19T13:46:16.548Z,48.70
2023-05-19T13:49:18.416Z,48.70
2023-05-19T13:52:23.264Z,48.60
2023-05-19T13:55:27.162Z,48.50
2023-05-19T13:58:29.870Z,48.20
2023-05-19T14:01:31.615Z,48.30
2023-05-19T14:04:33.352Z,48.70
2023-05-19T14:07:35.607Z,48.90
2023-05-19T14:10:37.541Z,48.90
2023-05-19T14:16:41.715Z,48.20
2023-05-19T14:19:43.874Z,48.00
2023-05-19T14:22:45.627Z,48.00
2023-05-19T14:25:47.308Z,47.80
2023-05-19T14:28:49.101Z,47.70
2023-05-19T14:31:50.959Z,47.70
2023-05-19T14:34:53.062Z,47.60
2023-05-19T14:37:54.762Z,47.30
2023-05-19T14:40:56.816Z,47.30
2023-05-19T14:43:58.523Z,47.30
2023-05-19T14:47:02.369Z,47.10
2023-05-19T14:50:04.638Z,47.10
2023-05-19T14:53:06.347Z,47.10
2023-05-19T14:56:08.200Z,47.00
2023-05-19T14:59:10.297Z,46.70
2023-05-19T15:02:13.176Z,46.60
2023-05-19T15:05:15.032Z,46.50
2023-05-19T15:08:16.808Z,46.60
2023-05-19T15:11:18.543Z,46.60
2023-05-19T15:14:20.501Z,46.70
2023-05-19T15:17:22.250Z,46.50
2023-05-19T15:20:24.168Z,46.50
2023-05-19T15:23:25.885Z,46.70
2023-05-19T15:26:29.752Z,46.80
2023-05-19T15:29:32.174Z,46.70
2023-05-19T15:32:33.982Z,46.20
2023-05-19T15:35:35.695Z,45.70
2023-05-19T15:38:37.521Z,45.40
2023-05-19T15:41:39.269Z,45.10
2023-05-19T15:44:40.981Z,44.90
2023-05-19T15:47:42.692Z,44.60
2023-05-19T15:50:44.655Z,44.20
2023-05-19T15:53:46.413Z,43.50
2023-05-19T15:56:48.211Z,42.80
2023-05-19T15:59:49.968Z,42.40
2023-05-19T16:02:51.736Z,42.30
2023-05-19T16:05:54.209Z,42.00
2023-05-19T16:08:56.360Z,41.50
2023-05-19T16:11:58.109Z,41.40
2023-05-19T16:14:59.855Z,41.50
2023-05-19T16:18:01.590Z,41.20
2023-05-19T16:21:03.767Z,41.10
2023-05-19T16:24:05.765Z,41.00
2023-05-19T16:27:07.516Z,41.10
2023-05-19T16:30:09.842Z,41.00
2023-05-19T16:33:11.902Z,41.10
2023-05-19T16:36:13.642Z,41.30
2023-05-19T16:39:15.666Z,41.70
2023-05-19T16:42:17.456Z,42.50
2023-05-19T16:45:19.256Z,43.50
2023-05-19T16:48:20.996Z,44.30
2023-05-19T16:51:22.973Z,45.00
2023-05-19T16:54:25.354Z,45.70
2023-05-19T16:57:27.116Z,46.30
2023-05-19T17:00:29.817Z,46.50
2023-05-19T17:03:31.931Z,46.80
2023-05-19T17:06:33.736Z,47.20
2023-05-19T17:09:35.542Z,47.60
2023-05-19T17:12:37.298Z,47.90
2023-05-19T17:15:40.907Z,48.00
2023-05-19T17:18:44.193Z,48.00
2023-05-19T17:21:46.374Z,47.60
2023-05-19T17:24:48.182Z,46.80
2023-05-19T17:27:49.977Z,46.60
2023-05-19T17:30:51.881Z,47.30
2023-05-19T17:33:53.547Z,48.00
2023-05-19T17:36:55.372Z,48.40
2023-05-19T17:39:57.441Z,48.80
2023-05-19T17:42:59.239Z,49.00
2023-05-19T17:46:01.317Z,49.40
2023-05-19T17:49:03.338Z,49.60
2023-05-19T17:52:05.419Z,49.80
2023-05-19T17:55:08.005Z,50.10
2023-05-19T17:58:09.966Z,50.40
2023-05-19T18:01:11.766Z,50.50
2023-05-19T18:04:15.911Z,50.50
2023-05-19T18:07:18.033Z,50.50
2023-05-19T18:10:20.523Z,50.40
2023-05-19T18:13:23.584Z,50.40
2023-05-19T18:16:25.916Z,50.30
2023-05-19T18:19:27.909Z,50.40
2023-05-19T18:22:29.705Z,50.50
2023-05-19T18:25:31.404Z,50.70
2023-05-19T18:28:33.314Z,50.90
2023-05-19T18:31:35.163Z,51.20
2023-05-19T18:34:37.012Z,51.40
2023-05-19T18:37:38.856Z,51.60
2023-05-19T18:40:43.483Z,51.50
2023-05-19T18:43:45.284Z,51.50
2023-05-19T18:46:46.989Z,51.80
2023-05-19T18:49:49.296Z,52.20
2023-05-19T18:52:51.042Z,52.50
2023-05-19T18:55:52.727Z,52.50
2023-05-19T18:58:54.722Z,52.80
2023-05-19T19:01:56.483Z,52.90
2023-05-19T19:04:58.507Z,52.90
2023-05-19T19:08:00.377Z,53.00
2023-05-19T19:11:02.376Z,53.20
2023-05-19T19:14:04.214Z,53.30
2023-05-19T19:17:06.149Z,53.50
2023-05-19T19:20:08.908Z,53.70
2023-05-19T19:23:10.882Z,53.80
2023-05-19T19:26:12.633Z,54.00
2023-05-19T19:29:16.653Z,54.30
2023-05-19T19:32:18.399Z,54.50
2023-05-19T19:35:22.938Z,54.70
2023-05-19T19:38:24.719Z,54.90
2023-05-19T19:41:28.052Z,55.10
2023-05-19T19:44:29.741Z,55.30
2023-05-19T19:47:32.701Z,55.50
2023-05-19T19:50:34.750Z,55.60
2023-05-19T19:53:36.673Z,55.70
2023-05-19T19:56:38.525Z,55.80
2023-05-19T19:59:40.504Z,55.90
2023-05-19T20:02:55.799Z,56.00
2023-05-19T20:06:03.950Z,56.20
2023-05-19T20:09:06.153Z,56.50
2023-05-19T20:12:07.986Z,56.60
2023-05-19T20:15:10.112Z,56.80
2023-05-19T20:18:11.906Z,57.00
2023-05-19T20:21:13.816Z,57.20
2023-05-19T20:24:15.603Z,57.40
2023-05-19T20:27:17.372Z,57.50
2023-05-19T20:30:19.141Z,57.70
2023-05-19T20:33:21.188Z,57.90
2023-05-19T20:36:22.923Z,58.20
2023-05-19T20:39:24.736Z,58.30
2023-05-19T20:42:26.416Z,58.50
2023-05-19T20:45:28.236Z,58.70
2023-05-19T20:48:29.985Z,59.00
2023-05-19T20:51:32.696Z,59.20
2023-05-19T20:54:34.398Z,59.30
2023-05-19T20:57:36.088Z,59.40
2023-05-19T21:00:38.093Z,59.60
2023-05-19T21:03:40.127Z,60.00
2023-05-19T21:06:41.904Z,60.30
2023-05-19T21:09:46.450Z,60.50
2023-05-19T21:12:48.201Z,60.60
2023-05-19T21:15:50.011Z,60.70
2023-05-19T21:18:51.793Z,60.80
2023-05-19T21:21:53.664Z,60.80
2023-05-19T21:24:56.233Z,60.80
2023-05-19T21:28:01.094Z,61.00
2023-05-19T21:31:05.309Z,61.20
2023-05-19T21:34:09.781Z,61.50
2023-05-19T21:37:11.492Z,61.70
2023-05-19T21:40:13.575Z,61.80
2023-05-19T21:43:16.000Z,62.00
2023-05-19T21:46:17.732Z,62.00
2023-05-19T21:49:20.151Z,62.20
